sensor_id;sensor_type;location;lat;lon;timestamp;pressure;altitude;pressure_sealevel;temperature;humidity
21588;BME280;10956;48.878;13.316;2023-11-21T00:01:47;93661.69;;;5.83;100.00
21588;BME280;10956;48.878;13.316;2023-11-21T00:04:13;93662.97;;;5.80;100.00
21588;BME280;10956;48.878;13.316;2023-11-21T00:06:38;93667.41;;;5.80;100.00
21588;BME280;10956;48.878;13.316;2023-11-21T00:09:04;93670.56;;;5.82;100.00
21588;BME280;10956;48.878;13.316;2023-11-21T00:11:30;93668.50;;;5.84;100.00
21588;BME280;10956;48.878;13.316;2023-11-21T00:13:55;93659.59;;;5.85;100.00
21588;BME280;10956;48.878;13.316;2023-11-21T00:16:21;93657.53;;;5.87;100.00
21588;BME280;10956;48.878;13.316;2023-11-21T00:18:47;93658.63;;;5.91;100.00
21588;BME280;10956;48.878;13.316;2023-11-21T00:21:13;93658.94;;;5.95;100.00
21588;BME280;10956;48.878;13.316;2023-11-21T00:23:38;93660.50;;;5.96;100.00
21588;BME280;10956;48.878;13.316;2023-11-21T00:26:04;93662.09;;;5.97;100.00
21588;BME280;10956;48.878;13.316;2023-11-21T00:28:29;93660.25;;;5.97;100.00
21588;BME280;10956;48.878;13.316;2023-11-21T00:30:55;93659.22;;;5.98;100.00
21588;BME280;10956;48.878;13.316;2023-11-21T00:33:20;93652.41;;;5.97;100.00
21588;BME280;10956;48.878;13.316;2023-11-21T00:35:46;93658.97;;;6.00;100.00
21588;BME280;10956;48.878;13.316;2023-11-21T00:38:11;93654.28;;;6.02;100.00
21588;BME280;10956;48.878;13.316;2023-11-21T00:40:37;93662.13;;;6.02;100.00
21588;BME280;10956;48.878;13.316;2023-11-21T00:43:03;93657.19;;;6.05;100.00
21588;BME280;10956;48.878;13.316;2023-11-21T00:45:28;93651.94;;;6.05;100.00
21588;BME280;10956;48.878;13.316;2023-11-21T00:47:53;93662.94;;;6.07;100.00
21588;BME280;10956;48.878;13.316;2023-11-21T00:50:19;93654.06;;;6.08;100.00
21588;BME280;10956;48.878;13.316;2023-11-21T00:52:45;93659.53;;;6.07;100.00
21588;BME280;10956;48.878;13.316;2023-11-21T00:55:10;93663.44;;;6.04;100.00
21588;BME280;10956;48.878;13.316;2023-11-21T00:57:37;93660.84;;;6.04;100.00
21588;BME280;10956;48.878;13.316;2023-11-21T01:00:02;93651.94;;;6.05;100.00
21588;BME280;10956;48.878;13.316;2023-11-21T01:02:32;93651.94;;;6.05;100.00
21588;BME280;10956;48.878;13.316;2023-11-21T01:04:58;93649.63;;;6.09;100.00
21588;BME280;10956;48.878;13.316;2023-11-21T01:07:23;93648.03;;;6.08;100.00
21588;BME280;10956;48.878;13.316;2023-11-21T01:09:49;93648.84;;;6.08;100.00
21588;BME280;10956;48.878;13.316;2023-11-21T01:12:15;93648.03;;;6.08;100.00
21588;BME280;10956;48.878;13.316;2023-11-21T01:14:41;93634.44;;;6.06;100.00
21588;BME280;10956;48.878;13.316;2023-11-21T01:17:06;93638.34;;;6.03;100.00
21588;BME280;10956;48.878;13.316;2023-11-21T01:19:32;93633.06;;;5.98;100.00
21588;BME280;10956;48.878;13.316;2023-11-21T01:21:57;93640.88;;;5.93;100.00
21588;BME280;10956;48.878;13.316;2023-11-21T01:24:23;93638.75;;;5.90;100.00
21588;BME280;10956;48.878;13.316;2023-11-21T01:26:48;93637.72;;;5.91;100.00
21588;BME280;10956;48.878;13.316;2023-11-21T01:29:14;93640.88;;;5.93;100.00
21588;BME280;10956;48.878;13.316;2023-11-21T01:31:40;93625.69;;;5.90;100.00
21588;BME280;10956;48.878;13.316;2023-11-21T01:34:06;93634.06;;;5.92;100.00
21588;BME280;10956;48.878;13.316;2023-11-21T01:36:32;93633.03;;;5.93;100.00
21588;BME280;10956;48.878;13.316;2023-11-21T01:38:58;93633.56;;;5.95;100.00
21588;BME280;10956;48.878;13.316;2023-11-21T01:41:27;93636.72;;;5.97;100.00
21588;BME280;10956;48.878;13.316;2023-11-21T01:43:54;93636.22;;;6.00;100.00
21588;BME280;10956;48.878;13.316;2023-11-21T01:46:20;93635.19;;;6.01;100.00
21588;BME280;10956;48.878;13.316;2023-11-21T01:48:47;93636.22;;;6.00;100.00
21588;BME280;10956;48.878;13.316;2023-11-21T01:51:13;93635.44;;;6.00;100.00
21588;BME280;10956;48.878;13.316;2023-11-21T01:53:39;93638.28;;;5.98;100.00
21588;BME280;10956;48.878;13.316;2023-11-21T01:56:05;93634.59;;;5.94;100.00
21588;BME280;10956;48.878;13.316;2023-11-21T01:58:32;93632.00;;;5.94;100.00
21588;BME280;10956;48.878;13.316;2023-11-21T02:00:58;93632.78;;;5.95;100.00
21588;BME280;10956;48.878;13.316;2023-11-21T02:03:24;93638.00;;;5.95;100.00
21588;BME280;10956;48.878;13.316;2023-11-21T02:05:52;93642.44;;;5.94;100.00
21588;BME280;10956;48.878;13.316;2023-11-21T02:08:18;93636.44;;;5.94;100.00
21588;BME280;10956;48.878;13.316;2023-11-21T02:10:44;93640.09;;;5.93;100.00
21588;BME280;10956;48.878;13.316;2023-11-21T02:13:10;93632.00;;;5.94;100.00
21588;BME280;10956;48.878;13.316;2023-11-21T02:15:36;93632.78;;;5.95;100.00
21588;BME280;10956;48.878;13.316;2023-11-21T02:18:04;93637.72;;;5.91;100.00
21588;BME280;10956;48.878;13.316;2023-11-21T02:20:31;93630.91;;;5.90;100.00
21588;BME280;10956;48.878;13.316;2023-11-21T02:23:00;93635.66;;;5.93;100.00
21588;BME280;10956;48.878;13.316;2023-11-21T02:25:26;93635.66;;;5.93;100.00
21588;BME280;10956;48.878;13.316;2023-11-21T02:27:56;93635.41;;;5.95;100.00
21588;BME280;10956;48.878;13.316;2023-11-21T02:30:22;93624.69;;;5.96;100.00
21588;BME280;10956;48.878;13.316;2023-11-21T02:32:48;93622.81;;;5.92;100.00
21588;BME280;10956;48.878;13.316;2023-11-21T02:35:14;93630.41;;;5.93;100.00
21588;BME280;10956;48.878;13.316;2023-11-21T02:37:41;93625.19;;;5.93;100.00
21588;BME280;10956;48.878;13.316;2023-11-21T02:40:09;93628.84;;;5.92;100.00
21588;BME280;10956;48.878;13.316;2023-11-21T02:42:35;93625.19;;;5.93;100.00
21588;BME280;10956;48.878;13.316;2023-11-21T02:45:00;93620.75;;;5.94;100.00
21588;BME280;10956;48.878;13.316;2023-11-21T02:47:26;93622.31;;;5.95;100.00
21588;BME280;10956;48.878;13.316;2023-11-21T02:49:51;93630.41;;;5.93;100.00
21588;BME280;10956;48.878;13.316;2023-11-21T02:52:18;93619.94;;;5.93;100.00
21588;BME280;10956;48.878;13.316;2023-11-21T02:54:44;93619.94;;;5.93;100.00
21588;BME280;10956;48.878;13.316;2023-11-21T02:57:09;93625.19;;;5.93;100.00
21588;BME280;10956;48.878;13.316;2023-11-21T02:59:35;93614.66;;;5.88;100.00
21588;BME280;10956;48.878;13.316;2023-11-21T03:02:00;93618.06;;;5.89;100.00
21588;BME280;10956;48.878;13.316;2023-11-21T03:04:26;93624.09;;;5.89;100.00
21588;BME280;10956;48.878;13.316;2023-11-21T03:06:51;93615.22;;;5.90;100.00
21588;BME280;10956;48.878;13.316;2023-11-21T03:09:17;93614.63;;;5.83;100.00
21588;BME280;10956;48.878;13.316;2023-11-21T03:11:42;93616.19;;;5.84;100.00
21588;BME280;10956;48.878;13.316;2023-11-21T03:14:07;93618.56;;;5.86;100.00
21588;BME280;10956;48.878;13.316;2023-11-21T03:16:33;93626.16;;;5.87;100.00
21588;BME280;10956;48.878;13.316;2023-11-21T03:18:58;93619.34;;;5.86;100.00
21588;BME280;10956;48.878;13.316;2023-11-21T03:21:24;93617.78;;;5.85;100.00
21588;BME280;10956;48.878;13.316;2023-11-21T03:23:51;93613.03;;;5.82;100.00
21588;BME280;10956;48.878;13.316;2023-11-21T03:26:17;93606.22;;;5.81;100.00
21588;BME280;10956;48.878;13.316;2023-11-21T03:28:42;93599.97;;;5.82;100.00
21588;BME280;10956;48.878;13.316;2023-11-21T03:31:08;93603.38;;;5.82;100.00
21588;BME280;10956;48.878;13.316;2023-11-21T03:33:34;93597.34;;;5.82;100.00
21588;BME280;10956;48.878;13.316;2023-11-21T03:36:00;93609.94;;;5.85;100.00
21588;BME280;10956;48.878;13.316;2023-11-21T03:38:26;93600.50;;;5.84;100.00
21588;BME280;10956;48.878;13.316;2023-11-21T03:40:51;93611.47;;;5.81;100.00
21588;BME280;10956;48.878;13.316;2023-11-21T03:43:16;93605.16;;;5.77;100.00
21588;BME280;10956;48.878;13.316;2023-11-21T03:45:42;93605.06;;;5.67;100.00
21588;BME280;10956;48.878;13.316;2023-11-21T03:48:07;93604.53;;;5.65;100.00
21588;BME280;10956;48.878;13.316;2023-11-21T03:50:34;93611.38;;;5.71;100.00
21588;BME280;10956;48.878;13.316;2023-11-21T03:52:59;93606.94;;;5.71;100.00
21588;BME280;10956;48.878;13.316;2023-11-21T03:55:24;93613.75;;;5.72;100.00
21588;BME280;10956;48.878;13.316;2023-11-21T03:57:50;93617.91;;;5.68;100.00
21588;BME280;10956;48.878;13.316;2023-11-21T04:00:17;93613.47;;;5.69;100.00
21588;BME280;10956;48.878;13.316;2023-11-21T04:02:42;93618.19;;;5.72;100.00
21588;BME280;10956;48.878;13.316;2023-11-21T04:05:08;93617.16;;;5.73;100.00
21588;BME280;10956;48.878;13.316;2023-11-21T04:07:34;93610.63;;;5.75;100.00
21588;BME280;10956;48.878;13.316;2023-11-21T04:10:00;93614.06;;;5.81;100.00
21588;BME280;10956;48.878;13.316;2023-11-21T04:12:26;93614.38;;;5.84;100.00
21588;BME280;10956;48.878;13.316;2023-11-21T04:14:51;93606.53;;;5.84;100.00
21588;BME280;10956;48.878;13.316;2023-11-21T04:17:20;93617.78;;;5.85;100.00
21588;BME280;10956;48.878;13.316;2023-11-21T04:19:46;93613.06;;;5.87;100.00
21588;BME280;10956;48.878;13.316;2023-11-21T04:22:12;93613.06;;;5.87;100.00
21588;BME280;10956;48.878;13.316;2023-11-21T04:24:37;93612.25;;;5.81;100.00
21588;BME280;10956;48.878;13.316;2023-11-21T04:27:03;93606.72;;;5.78;100.00
21588;BME280;10956;48.878;13.316;2023-11-21T04:29:28;93610.88;;;5.74;100.00
21588;BME280;10956;48.878;13.316;2023-11-21T04:31:54;93597.78;;;5.69;100.00
21588;BME280;10956;48.878;13.316;2023-11-21T04:34:19;93596.69;;;5.65;100.00
21588;BME280;10956;48.878;13.316;2023-11-21T04:36:44;93607.66;;;5.62;100.00
21588;BME280;10956;48.878;13.316;2023-11-21T04:39:10;93603.47;;;5.61;100.00
21588;BME280;10956;48.878;13.316;2023-11-21T04:41:36;93600.84;;;5.61;100.00
21588;BME280;10956;48.878;13.316;2023-11-21T04:44:05;93595.13;;;5.64;100.00
21588;BME280;10956;48.878;13.316;2023-11-21T04:46:30;93604.03;;;5.68;100.00
21588;BME280;10956;48.878;13.316;2023-11-21T04:48:57;93601.19;;;5.69;100.00
21588;BME280;10956;48.878;13.316;2023-11-21T04:51:22;93597.28;;;5.72;100.00
21588;BME280;10956;48.878;13.316;2023-11-21T04:53:47;93602.50;;;5.72;100.00
21588;BME280;10956;48.878;13.316;2023-11-21T04:56:13;93598.31;;;5.71;100.00
21588;BME280;10956;48.878;13.316;2023-11-21T04:58:38;93602.50;;;5.72;100.00
21588;BME280;10956;48.878;13.316;2023-11-21T05:01:05;93600.63;;;5.67;100.00
21588;BME280;10956;48.878;13.316;2023-11-21T05:03:32;93600.63;;;5.67;100.00
21588;BME280;10956;48.878;13.316;2023-11-21T05:05:57;93592.25;;;5.65;100.00
21588;BME280;10956;48.878;13.316;2023-11-21T05:08:23;93601.44;;;5.68;100.00
21588;BME280;10956;48.878;13.316;2023-11-21T05:10:48;93598.28;;;5.66;100.00
21588;BME280;10956;48.878;13.316;2023-11-21T05:13:17;93600.34;;;5.64;100.00
21588;BME280;10956;48.878;13.316;2023-11-21T05:15:43;93603.22;;;5.62;100.00
21588;BME280;10956;48.878;13.316;2023-11-21T05:18:09;93600.34;;;5.64;100.00
21588;BME280;10956;48.878;13.316;2023-11-21T05:20:35;93608.72;;;5.66;100.00
21588;BME280;10956;48.878;13.316;2023-11-21T05:23:01;93611.88;;;5.68;100.00
21588;BME280;10956;48.878;13.316;2023-11-21T05:25:27;93598.81;;;5.68;100.00
21588;BME280;10956;48.878;13.316;2023-11-21T05:27:52;93601.44;;;5.68;100.00
21588;BME280;10956;48.878;13.316;2023-11-21T05:30:21;93606.94;;;5.71;100.00
21588;BME280;10956;48.878;13.316;2023-11-21T05:32:46;93607.47;;;5.73;100.00
21588;BME280;10956;48.878;13.316;2023-11-21T05:35:12;93608.81;;;5.76;100.00
21588;BME280;10956;48.878;13.316;2023-11-21T05:37:41;93614.81;;;5.76;100.00
21588;BME280;10956;48.878;13.316;2023-11-21T05:40:07;93614.81;;;5.76;100.00
21588;BME280;10956;48.878;13.316;2023-11-21T05:42:34;93620.84;;;5.77;100.00
21588;BME280;10956;48.878;13.316;2023-11-21T05:45:00;93608.81;;;5.76;100.00
21588;BME280;10956;48.878;13.316;2023-11-21T05:47:36;93607.72;;;5.72;100.00
21588;BME280;10956;48.878;13.316;2023-11-21T05:50:02;93612.66;;;5.68;100.00
21588;BME280;10956;48.878;13.316;2023-11-21T05:52:28;93616.56;;;5.66;100.00
21588;BME280;10956;48.878;13.316;2023-11-21T05:54:53;93613.97;;;5.66;100.00
21588;BME280;10956;48.878;13.316;2023-11-21T05:57:18;93616.81;;;5.64;100.00
21588;BME280;10956;48.878;13.316;2023-11-21T05:59:44;93620.47;;;5.63;100.00
21588;BME280;10956;48.878;13.316;2023-11-21T06:02:11;93620.47;;;5.63;100.00
21588;BME280;10956;48.878;13.316;2023-11-21T06:04:36;93615.75;;;5.60;100.00
21588;BME280;10956;48.878;13.316;2023-11-21T06:07:02;93616.16;;;5.47;100.00
21588;BME280;10956;48.878;13.316;2023-11-21T06:09:28;93628.38;;;5.41;100.00
21588;BME280;10956;48.878;13.316;2023-11-21T06:11:53;93617.34;;;5.34;100.00
21588;BME280;10956;48.878;13.316;2023-11-21T06:14:18;93621.19;;;5.27;100.00
21588;BME280;10956;48.878;13.316;2023-11-21T06:16:44;93626.09;;;5.23;100.00
21588;BME280;10956;48.878;13.316;2023-11-21T06:19:10;93626.59;;;5.20;100.00
21588;BME280;10956;48.878;13.316;2023-11-21T06:21:36;93633.78;;;5.08;100.00
21588;BME280;10956;48.878;13.316;2023-11-21T06:24:01;93640.22;;;5.00;100.00
21588;BME280;10956;48.878;13.316;2023-11-21T06:26:27;93640.47;;;4.99;100.00
21588;BME280;10956;48.878;13.316;2023-11-21T06:28:52;93642.59;;;5.02;100.00
21588;BME280;10956;48.878;13.316;2023-11-21T06:31:19;93648.66;;;5.07;100.00
21588;BME280;10956;48.878;13.316;2023-11-21T06:33:44;93651.63;;;5.16;100.00
21588;BME280;10956;48.878;13.316;2023-11-21T06:36:10;93659.72;;;5.14;100.00
21588;BME280;10956;48.878;13.316;2023-11-21T06:38:37;93658.19;;;5.18;100.00
21588;BME280;10956;48.878;13.316;2023-11-21T06:41:02;93661.41;;;5.26;100.00
21588;BME280;10956;48.878;13.316;2023-11-21T06:43:29;93667.97;;;5.28;100.00
21588;BME280;10956;48.878;13.316;2023-11-21T06:45:56;93658.59;;;5.32;100.00
21588;BME280;10956;48.878;13.316;2023-11-21T06:48:22;93658.66;;;5.37;100.00
21588;BME280;10956;48.878;13.316;2023-11-21T06:50:47;93662.34;;;5.41;100.00
21588;BME280;10956;48.878;13.316;2023-11-21T06:53:13;93668.91;;;5.44;100.00
21588;BME280;10956;48.878;13.316;2023-11-21T06:55:38;93669.19;;;5.47;100.00
21588;BME280;10956;48.878;13.316;2023-11-21T06:58:04;93671.75;;;5.42;100.00
21588;BME280;10956;48.878;13.316;2023-11-21T07:00:30;93662.09;;;5.43;100.00
21588;BME280;10956;48.878;13.316;2023-11-21T07:02:55;93673.34;;;5.43;100.00
21588;BME280;10956;48.878;13.316;2023-11-21T07:05:21;93668.34;;;5.42;100.00
21588;BME280;10956;48.878;13.316;2023-11-21T07:07:48;93672.56;;;5.43;100.00
21588;BME280;10956;48.878;13.316;2023-11-21T07:10:13;93675.94;;;5.43;100.00
21588;BME280;10956;48.878;13.316;2023-11-21T07:12:39;93683.31;;;5.46;100.00
21588;BME280;10956;48.878;13.316;2023-11-21T07:15:06;93684.88;;;5.47;100.00
21588;BME280;10956;48.878;13.316;2023-11-21T07:17:34;93695.56;;;5.46;100.00
21588;BME280;10956;48.878;13.316;2023-11-21T07:20:00;93691.69;;;5.48;100.00
21588;BME280;10956;48.878;13.316;2023-11-21T07:22:26;93696.41;;;5.51;100.00
21588;BME280;10956;48.878;13.316;2023-11-21T07:24:51;93693.84;;;5.57;100.00
21588;BME280;10956;48.878;13.316;2023-11-21T07:27:17;93697.00;;;5.59;100.00
21588;BME280;10956;48.878;13.316;2023-11-21T07:29:42;93696.03;;;5.65;100.00
21588;BME280;10956;48.878;13.316;2023-11-21T07:32:08;93691.88;;;5.69;100.00
21588;BME280;10956;48.878;13.316;2023-11-21T07:34:35;93691.38;;;5.72;100.00
21588;BME280;10956;48.878;13.316;2023-11-21T07:37:01;93698.00;;;5.79;100.00
21588;BME280;10956;48.878;13.316;2023-11-21T07:39:26;93690.94;;;5.80;100.00
21588;BME280;10956;48.878;13.316;2023-11-21T07:41:52;93709.53;;;5.83;100.00
21588;BME280;10956;48.878;13.316;2023-11-21T07:44:17;93705.22;;;5.94;100.00
21588;BME280;10956;48.878;13.316;2023-11-21T07:46:43;93700.06;;;6.04;100.00
21588;BME280;10956;48.878;13.316;2023-11-21T07:49:09;93705.09;;;6.11;100.00
21588;BME280;10956;48.878;13.316;2023-11-21T07:51:34;93704.84;;;6.12;100.00
21588;BME280;10956;48.878;13.316;2023-11-21T07:54:00;93706.66;;;6.12;100.00
21588;BME280;10956;48.878;13.316;2023-11-21T07:56:26;93712.59;;;6.02;100.00
21588;BME280;10956;48.878;13.316;2023-11-21T07:58:51;93716.81;;;6.03;100.00
21588;BME280;10956;48.878;13.316;2023-11-21T08:01:17;93724.16;;;6.06;100.00
21588;BME280;10956;48.878;13.316;2023-11-21T08:03:42;93716.34;;;6.11;100.00
21588;BME280;10956;48.878;13.316;2023-11-21T08:06:09;93720.53;;;6.12;100.00
21588;BME280;10956;48.878;13.316;2023-11-21T08:08:34;93711.69;;;6.19;100.00
21588;BME280;10956;48.878;13.316;2023-11-21T08:11:00;93716.72;;;6.25;100.00
21588;BME280;10956;48.878;13.316;2023-11-21T08:13:27;93710.72;;;6.30;100.00
21588;BME280;10956;48.878;13.316;2023-11-21T08:15:57;93717.03;;;6.34;100.00
21588;BME280;10956;48.878;13.316;2023-11-21T08:18:27;93713.94;;;6.37;100.00
21588;BME280;10956;48.878;13.316;2023-11-21T08:20:52;93716.56;;;6.42;100.00
21588;BME280;10956;48.878;13.316;2023-11-21T08:23:20;93718.47;;;6.52;100.00
21588;BME280;10956;48.878;13.316;2023-11-21T08:25:46;93717.16;;;6.49;100.00
21588;BME280;10956;48.878;13.316;2023-11-21T08:28:12;93720.03;;;6.47;100.00
21588;BME280;10956;48.878;13.316;2023-11-21T08:30:39;93722.44;;;6.59;100.00
21588;BME280;10956;48.878;13.316;2023-11-21T08:33:07;93716.00;;;6.72;100.00
21588;BME280;10956;48.878;13.316;2023-11-21T08:35:33;93716.59;;;6.89;100.00
21588;BME280;10956;48.878;13.316;2023-11-21T08:37:59;93711.69;;;7.03;100.00
21588;BME280;10956;48.878;13.316;2023-11-21T08:40:25;93713.84;;;7.11;100.00
21588;BME280;10956;48.878;13.316;2023-11-21T08:42:50;93719.38;;;7.20;100.00
21588;BME280;10956;48.878;13.316;2023-11-21T08:45:18;93710.75;;;7.29;100.00
21588;BME280;10956;48.878;13.316;2023-11-21T08:47:44;93718.66;;;7.34;100.00
21588;BME280;10956;48.878;13.316;2023-11-21T08:50:10;93715.50;;;7.32;100.00
21588;BME280;10956;48.878;13.316;2023-11-21T08:52:37;93723.34;;;7.32;100.00
21588;BME280;10956;48.878;13.316;2023-11-21T08:55:04;93729.66;;;7.36;100.00
21588;BME280;10956;48.878;13.316;2023-11-21T08:57:36;93738.34;;;7.47;100.00
21588;BME280;10956;48.878;13.316;2023-11-21T09:00:05;93730.00;;;7.55;100.00
21588;BME280;10956;48.878;13.316;2023-11-21T09:02:40;93737.09;;;7.60;100.00
21588;BME280;10956;48.878;13.316;2023-11-21T09:05:08;93732.91;;;7.69;100.00
21588;BME280;10956;48.878;13.316;2023-11-21T09:07:35;93742.88;;;7.72;100.00
21588;BME280;10956;48.878;13.316;2023-11-21T09:10:01;93731.88;;;7.70;100.00
21588;BME280;10956;48.878;13.316;2023-11-21T09:12:27;93736.59;;;7.73;100.00
21588;BME280;10956;48.878;13.316;2023-11-21T09:14:52;93740.00;;;7.78;100.00
21588;BME280;10956;48.878;13.316;2023-11-21T09:17:18;93751.84;;;7.86;100.00
21588;BME280;10956;48.878;13.316;2023-11-21T09:19:44;93747.63;;;7.85;100.00
21588;BME280;10956;48.878;13.316;2023-11-21T09:22:12;93759.19;;;7.84;100.00
21588;BME280;10956;48.878;13.316;2023-11-21T09:24:37;93746.56;;;7.81;100.00
21588;BME280;10956;48.878;13.316;2023-11-21T09:27:03;93755.50;;;7.85;100.00
21588;BME280;10956;48.878;13.316;2023-11-21T09:29:30;93757.63;;;7.93;100.00
21588;BME280;10956;48.878;13.316;2023-11-21T09:31:57;93760.00;;;8.05;100.00
21588;BME280;10956;48.878;13.316;2023-11-21T09:34:24;93761.34;;;8.23;100.00
21588;BME280;10956;48.878;13.316;2023-11-21T09:36:50;93766.09;;;8.36;100.00
21588;BME280;10956;48.878;13.316;2023-11-21T09:39:16;93764.00;;;8.58;100.00
21588;BME280;10956;48.878;13.316;2023-11-21T09:41:46;93754.53;;;8.83;100.00
21588;BME280;10956;48.878;13.316;2023-11-21T09:44:13;93759.75;;;9.03;100.00
21588;BME280;10956;48.878;13.316;2023-11-21T09:46:42;93760.78;;;9.17;100.00
21588;BME280;10956;48.878;13.316;2023-11-21T09:49:11;93755.50;;;9.17;100.00
21588;BME280;10956;48.878;13.316;2023-11-21T09:51:42;93757.63;;;9.10;100.00
21588;BME280;10956;48.878;13.316;2023-11-21T09:54:10;93758.69;;;9.09;100.00
21588;BME280;10956;48.878;13.316;2023-11-21T09:56:37;93762.38;;;9.03;100.00
21588;BME280;10956;48.878;13.316;2023-11-21T09:59:03;93761.34;;;8.99;100.00
21588;BME280;10956;48.878;13.316;2023-11-21T10:01:32;93754.00;;;8.96;100.00
21588;BME280;10956;48.878;13.316;2023-11-21T10:03:58;93748.22;;;8.89;100.00
21588;BME280;10956;48.878;13.316;2023-11-21T10:06:25;93743.50;;;8.76;100.00
21588;BME280;10956;48.878;13.316;2023-11-21T10:08:53;93742.47;;;8.61;100.00
21588;BME280;10956;48.878;13.316;2023-11-21T10:11:19;93748.78;;;8.45;100.00
21588;BME280;10956;48.878;13.316;2023-11-21T10:13:47;93750.59;;;8.29;100.00
21588;BME280;10956;48.878;13.316;2023-11-21T10:16:19;93743.50;;;8.25;100.00
21588;BME280;10956;48.878;13.316;2023-11-21T10:18:47;93747.16;;;8.29;100.00
21588;BME280;10956;48.878;13.316;2023-11-21T10:21:13;93744.59;;;8.39;100.00
21588;BME280;10956;48.878;13.316;2023-11-21T10:23:39;93754.56;;;8.52;100.00
21588;BME280;10956;48.878;13.316;2023-11-21T10:26:06;93755.59;;;8.61;100.00
21588;BME280;10956;48.878;13.316;2023-11-21T10:28:37;93756.13;;;8.68;100.00
21588;BME280;10956;48.878;13.316;2023-11-21T10:31:06;93750.59;;;8.75;100.00
21588;BME280;10956;48.878;13.316;2023-11-21T10:33:32;93757.44;;;8.71;100.00
21588;BME280;10956;48.878;13.316;2023-11-21T10:35:58;93754.03;;;8.76;100.00
21588;BME280;10956;48.878;13.316;2023-11-21T10:38:24;93751.38;;;8.81;100.00
21588;BME280;10956;48.878;13.316;2023-11-21T10:40:52;93758.47;;;8.85;100.00
21588;BME280;10956;48.878;13.316;2023-11-21T10:43:20;93759.00;;;8.92;100.00
21588;BME280;10956;48.878;13.316;2023-11-21T10:45:49;93752.66;;;8.98;100.00
21588;BME280;10956;48.878;13.316;2023-11-21T10:48:15;93756.06;;;9.04;100.00
21588;BME280;10956;48.878;13.316;2023-11-21T10:50:41;93755.00;;;9.10;100.00
21588;BME280;10956;48.878;13.316;2023-11-21T10:53:07;93761.06;;;9.11;100.00
21588;BME280;10956;48.878;13.316;2023-11-21T10:55:33;93752.94;;;9.02;100.00
21588;BME280;10956;48.878;13.316;2023-11-21T10:58:02;93761.06;;;9.00;100.00
21588;BME280;10956;48.878;13.316;2023-11-21T11:00:30;93760.31;;;8.95;100.00
21588;BME280;10956;48.878;13.316;2023-11-21T11:02:56;93758.47;;;8.85;100.00
21588;BME280;10956;48.878;13.316;2023-11-21T11:05:24;93759.25;;;8.86;100.00
21588;BME280;10956;48.878;13.316;2023-11-21T11:08:11;93752.44;;;8.85;100.00
21588;BME280;10956;48.878;13.316;2023-11-21T11:10:37;93757.69;;;8.85;100.00
21588;BME280;10956;48.878;13.316;2023-11-21T11:13:04;93752.94;;;8.87;100.00
21588;BME280;10956;48.878;13.316;2023-11-21T11:15:29;93746.91;;;8.91;100.00
21588;BME280;10956;48.878;13.316;2023-11-21T11:17:55;93746.13;;;8.86;100.00
21588;BME280;10956;48.878;13.316;2023-11-21T11:20:24;93741.94;;;8.74;100.00
21588;BME280;10956;48.878;13.316;2023-11-21T11:23:04;93746.16;;;8.70;100.00
21588;BME280;10956;48.878;13.316;2023-11-21T11:28:21;93744.56;;;8.69;100.00
21588;BME280;10956;48.878;13.316;2023-11-21T11:31:09;93735.13;;;8.63;100.00
21588;BME280;10956;48.878;13.316;2023-11-21T11:33:42;93741.16;;;8.74;100.00
21588;BME280;10956;48.878;13.316;2023-11-21T11:36:38;93736.13;;;8.88;100.00
21588;BME280;10956;48.878;13.316;2023-11-21T11:39:34;93737.69;;;8.99;100.00
21588;BME280;10956;48.878;13.316;2023-11-21T11:42:03;93735.03;;;9.04;100.00
21588;BME280;10956;48.878;13.316;2023-11-21T11:50:05;93728.72;;;9.10;100.00
21588;BME280;10956;48.878;13.316;2023-11-21T11:52:52;93733.97;;;9.15;100.00
21588;BME280;10956;48.878;13.316;2023-11-21T11:55:21;93727.41;;;9.13;100.00
21588;BME280;10956;48.878;13.316;2023-11-21T11:57:53;93730.84;;;9.08;100.00
21588;BME280;10956;48.878;13.316;2023-11-21T12:00:33;93733.47;;;9.03;100.00
21588;BME280;10956;48.878;13.316;2023-11-21T12:03:03;93734.25;;;9.03;100.00
21588;BME280;10956;48.878;13.316;2023-11-21T12:05:30;93730.84;;;9.08;100.00
21588;BME280;10956;48.878;13.316;2023-11-21T12:08:00;93734.50;;;9.12;100.00
21588;BME280;10956;48.878;13.316;2023-11-21T12:10:30;93737.91;;;9.13;100.00
21588;BME280;10956;48.878;13.316;2023-11-21T12:13:01;93731.88;;;9.07;100.00
21588;BME280;10956;48.878;13.316;2023-11-21T12:15:26;93732.69;;;8.97;100.00
21588;BME280;10956;48.878;13.316;2023-11-21T12:17:56;93739.78;;;8.97;100.00
21588;BME280;10956;48.878;13.316;2023-11-21T12:20:23;93734.56;;;8.92;100.00
21588;BME280;10956;48.878;13.316;2023-11-21T12:22:57;93744.03;;;8.83;100.00
21588;BME280;10956;48.878;13.316;2023-11-21T12:25:28;93740.88;;;8.76;100.00
21588;BME280;10956;48.878;13.316;2023-11-21T12:27:55;93735.66;;;8.60;100.00
21588;BME280;10956;48.878;13.316;2023-11-21T12:30:22;93738.81;;;8.57;100.00
21588;BME280;10956;48.878;13.316;2023-11-21T12:32:52;93736.16;;;8.57;100.00
21588;BME280;10956;48.878;13.316;2023-11-21T12:35:19;93734.34;;;8.58;100.00
21588;BME280;10956;48.878;13.316;2023-11-21T12:37:45;93738.28;;;8.50;100.00
21588;BME280;10956;48.878;13.316;2023-11-21T12:40:14;93747.72;;;8.41;100.00
21588;BME280;10956;48.878;13.316;2023-11-21T12:42:46;93742.47;;;8.41;100.00
21588;BME280;10956;48.878;13.316;2023-11-21T12:48:11;93745.09;;;8.41;100.00
21588;BME280;10956;48.878;13.316;2023-11-21T12:50:38;93743.00;;;8.38;100.00
21588;BME280;10956;48.878;13.316;2023-11-21T12:53:05;93745.63;;;8.33;100.00
21588;BME280;10956;48.878;13.316;2023-11-21T12:55:32;93746.66;;;8.27;100.00
21588;BME280;10956;48.878;13.316;2023-11-21T12:58:01;93750.31;;;8.16;100.00
21588;BME280;10956;48.878;13.316;2023-11-21T13:03:05;93744.53;;;8.19;100.00